PWSweather.com
Personal Weather Stations
Station Observations
KMIEASTT1
Tawas Bay, East Tawas, MI 48730

Tawas BayEast Tawas, MI 48730

Lat: 44.28, Lon: -83.48

Elevation: 600

Station Type: Davis VantagePro

http://www.tawasbayweather.com

High Low Average
Temperature 46.5°F8.1°F 31.0°F-0.6°F 40.1°F4.5°F
Dew Point 43.1°F6.2°F 29.3°F-1.5°F 36.9°F2.7°F
Winds 9.0 mph SSW14.5 mph SSW Calm Calm 3.3 mph 5.3 mph
Wind Gusts 11.0 mph17.7 mph -- 4.9 mph7.9 mph
Humidity 95% 81% 88%
Pressure 30.16 in1021.30 in 29.99 in1015.60 in -
Precipitation 0.11 in2.80 in - -
Hour Temp Dew Point Humidity Winds Wind Gusts Pressure Precip Precip Rate Daily Precip Total
12:00 AM 40.3°F4.6°C 35.6°F2.0°C 83% 2.0 mph NNW3.2 kmh NNW 5.0 mph8.0 kmh 30.09 in1019.0 mb 0.00 in0.0 mm 0.00 in/hr0.0 mm/hr 0.00 in0.0 mm
12:15 AM 40.2°F4.6°C 35.2°F1.8°C 82% 1.0 mph NW1.6 kmh NW 2.0 mph3.2 kmh 30.09 in1019.0 mb 0.00 in0.0 mm 0.00 in/hr0.0 mm/hr 0.00 in0.0 mm
12:30 AM 40.3°F4.6°C 35.3°F1.8°C 82% 1.0 mph NW1.6 kmh NW 2.0 mph3.2 kmh 30.09 in1019.0 mb 0.00 in0.0 mm 0.00 in/hr0.0 mm/hr 0.00 in0.0 mm
12:45 AM 40.2°F4.6°C 35.2°F1.8°C 82% Calm Calm 3.0 mph4.8 kmh 30.10 in1019.3 mb 0.00 in0.0 mm 0.00 in/hr0.0 mm/hr 0.00 in0.0 mm
01:00 AM 40.3°F4.6°C 34.9°F1.6°C 81% 2.0 mph NW3.2 kmh NW 2.0 mph3.2 kmh 30.10 in1019.3 mb 0.00 in0.0 mm 0.00 in/hr0.0 mm/hr 0.00 in0.0 mm
01:15 AM 39.9°F4.4°C 34.6°F1.4°C 81% Calm Calm 3.0 mph4.8 kmh 30.10 in1019.3 mb 0.00 in0.0 mm 0.00 in/hr0.0 mm/hr 0.00 in0.0 mm
01:30 AM 39.1°F3.9°C 33.8°F1.0°C 81% Calm Calm 1.0 mph1.6 kmh 30.10 in1019.3 mb 0.00 in0.0 mm 0.00 in/hr0.0 mm/hr 0.00 in0.0 mm
01:45 AM 38.3°F3.5°C 33.3°F0.7°C 82% Calm Calm -- 30.10 in1019.3 mb 0.00 in0.0 mm 0.00 in/hr0.0 mm/hr 0.00 in0.0 mm
02:00 AM 37.3°F2.9°C 32.6°F0.3°C 83% Calm Calm -- 30.11 in1019.6 mb 0.00 in0.0 mm 0.00 in/hr0.0 mm/hr 0.00 in0.0 mm
02:15 AM 36.6°F2.6°C 32.5°F0.3°C 85% Calm Calm 1.0 mph1.6 kmh 30.11 in1019.6 mb 0.00 in0.0 mm 0.00 in/hr0.0 mm/hr 0.00 in0.0 mm
02:30 AM 35.7°F2.1°C 32.2°F0.1°C 87% 2.0 mph NW3.2 kmh NW 2.0 mph3.2 kmh 30.12 in1020.0 mb 0.00 in0.0 mm 0.00 in/hr0.0 mm/hr 0.00 in0.0 mm
02:45 AM 35.5°F1.9°C 32.3°F0.2°C 88% 1.0 mph NW1.6 kmh NW 2.0 mph3.2 kmh 30.12 in1020.0 mb 0.00 in0.0 mm 0.00 in/hr0.0 mm/hr 0.00 in0.0 mm
03:00 AM 34.9°F1.6°C 31.7°F-0.2°C 88% Calm Calm 2.0 mph3.2 kmh 30.12 in1020.0 mb 0.00 in0.0 mm 0.00 in/hr0.0 mm/hr 0.00 in0.0 mm
03:15 AM 34.8°F1.6°C 31.9°F-0.1°C 89% 2.0 mph NW3.2 kmh NW 2.0 mph3.2 kmh 30.13 in1020.3 mb 0.00 in0.0 mm 0.00 in/hr0.0 mm/hr 0.00 in0.0 mm
03:30 AM 34.7°F1.5°C 31.8°F-0.1°C 89% Calm Calm 1.0 mph1.6 kmh 30.13 in1020.3 mb 0.00 in0.0 mm 0.00 in/hr0.0 mm/hr 0.00 in0.0 mm
03:45 AM 34.3°F1.3°C 31.7°F-0.2°C 90% Calm Calm 1.0 mph1.6 kmh 30.13 in1020.3 mb 0.00 in0.0 mm 0.00 in/hr0.0 mm/hr 0.00 in0.0 mm
04:00 AM 33.9°F1.1°C 31.3°F-0.4°C 90% Calm Calm 1.0 mph1.6 kmh 30.13 in1020.3 mb 0.00 in0.0 mm 0.00 in/hr0.0 mm/hr 0.00 in0.0 mm
04:15 AM 33.6°F0.9°C 31.0°F-0.6°C 90% Calm Calm 1.0 mph1.6 kmh 30.13 in1020.3 mb 0.00 in0.0 mm 0.00 in/hr0.0 mm/hr 0.00 in0.0 mm
04:30 AM 33.2°F0.7°C 30.9°F-0.6°C 91% Calm Calm 1.0 mph1.6 kmh 30.13 in1020.3 mb 0.00 in0.0 mm 0.00 in/hr0.0 mm/hr 0.00 in0.0 mm
04:45 AM 32.8°F0.4°C 30.7°F-0.7°C 92% Calm Calm 1.0 mph1.6 kmh 30.13 in1020.3 mb 0.00 in0.0 mm 0.00 in/hr0.0 mm/hr 0.00 in0.0 mm
05:00 AM 32.6°F0.3°C 30.5°F-0.8°C 92% Calm Calm -- 30.13 in1020.3 mb 0.00 in0.0 mm 0.00 in/hr0.0 mm/hr 0.00 in0.0 mm
05:15 AM 32.2°F0.1°C 30.1°F-1.1°C 92% Calm Calm -- 30.13 in1020.3 mb 0.00 in0.0 mm 0.00 in/hr0.0 mm/hr 0.00 in0.0 mm
05:30 AM 31.7°F-0.2°C 29.9°F-1.2°C 93% Calm Calm -- 30.13 in1020.3 mb 0.00 in0.0 mm 0.00 in/hr0.0 mm/hr 0.00 in0.0 mm
05:45 AM 31.3°F-0.4°C 29.5°F-1.4°C 93% Calm Calm 1.0 mph1.6 kmh 30.14 in1020.7 mb 0.00 in0.0 mm 0.00 in/hr0.0 mm/hr 0.00 in0.0 mm
06:00 AM 31.1°F-0.5°C 29.3°F-1.5°C 93% Calm Calm 1.0 mph1.6 kmh 30.13 in1020.3 mb 0.00 in0.0 mm 0.00 in/hr0.0 mm/hr 0.00 in0.0 mm
06:15 AM 31.0°F-0.6°C 29.5°F-1.4°C 94% Calm Calm -- 30.13 in1020.3 mb 0.00 in0.0 mm 0.00 in/hr0.0 mm/hr 0.00 in0.0 mm
06:30 AM 31.2°F-0.4°C 29.7°F-1.3°C 94% Calm Calm 2.0 mph3.2 kmh 30.13 in1020.3 mb 0.00 in0.0 mm 0.00 in/hr0.0 mm/hr 0.00 in0.0 mm
06:45 AM 31.1°F-0.5°C 29.6°F-1.3°C 94% Calm Calm 2.0 mph3.2 kmh 30.14 in1020.7 mb 0.00 in0.0 mm 0.00 in/hr0.0 mm/hr 0.00 in0.0 mm
07:00 AM 31.2°F-0.4°C 29.7°F-1.3°C 94% Calm Calm 1.0 mph1.6 kmh 30.13 in1020.3 mb 0.00 in0.0 mm 0.00 in/hr0.0 mm/hr 0.00 in0.0 mm
07:15 AM 31.1°F-0.5°C 29.6°F-1.3°C 94% Calm Calm 1.0 mph1.6 kmh 30.13 in1020.3 mb 0.00 in0.0 mm 0.00 in/hr0.0 mm/hr 0.00 in0.0 mm
07:30 AM 31.1°F-0.5°C 29.6°F-1.3°C 94% Calm Calm 1.0 mph1.6 kmh 30.13 in1020.3 mb 0.00 in0.0 mm 0.00 in/hr0.0 mm/hr 0.00 in0.0 mm
07:45 AM 31.1°F-0.5°C 29.6°F-1.3°C 94% Calm Calm 1.0 mph1.6 kmh 30.14 in1020.7 mb 0.00 in0.0 mm 0.00 in/hr0.0 mm/hr 0.00 in0.0 mm
08:00 AM 31.5°F-0.3°C 30.2°F-1.0°C 95% 2.0 mph WNW3.2 kmh WNW 2.0 mph3.2 kmh 30.14 in1020.7 mb 0.00 in0.0 mm 0.00 in/hr0.0 mm/hr 0.00 in0.0 mm
08:15 AM 32.1°F0.1°C 30.8°F-0.7°C 95% 1.0 mph WNW1.6 kmh WNW 4.0 mph6.4 kmh 30.14 in1020.7 mb 0.00 in0.0 mm 0.00 in/hr0.0 mm/hr 0.00 in0.0 mm
08:30 AM 33.1°F0.6°C 31.8°F-0.1°C 95% 2.0 mph WNW3.2 kmh WNW 3.0 mph4.8 kmh 30.14 in1020.7 mb 0.00 in0.0 mm 0.00 in/hr0.0 mm/hr 0.00 in0.0 mm
08:45 AM 33.3°F0.7°C 31.8°F-0.1°C 94% 2.0 mph WNW3.2 kmh WNW 3.0 mph4.8 kmh 30.14 in1020.7 mb 0.00 in0.0 mm 0.00 in/hr0.0 mm/hr 0.00 in0.0 mm
09:00 AM 33.7°F0.9°C 32.4°F0.2°C 95% 1.0 mph N1.6 kmh N 3.0 mph4.8 kmh 30.15 in1021.0 mb 0.00 in0.0 mm 0.00 in/hr0.0 mm/hr 0.00 in0.0 mm
09:15 AM 34.2°F1.2°C 32.7°F0.4°C 94% 2.0 mph NNW3.2 kmh NNW 3.0 mph4.8 kmh 30.16 in1021.3 mb 0.00 in0.0 mm 0.00 in/hr0.0 mm/hr 0.00 in0.0 mm
09:30 AM 34.7°F1.5°C 33.2°F0.7°C 94% 2.0 mph NW3.2 kmh NW 3.0 mph4.8 kmh 30.16 in1021.3 mb 0.00 in0.0 mm 0.00 in/hr0.0 mm/hr 0.00 in0.0 mm
09:45 AM 35.3°F1.8°C 33.8°F1.0°C 94% Calm Calm 4.0 mph6.4 kmh 30.16 in1021.3 mb 0.00 in0.0 mm 0.00 in/hr0.0 mm/hr 0.00 in0.0 mm
10:00 AM 36.0°F2.2°C 33.9°F1.1°C 92% 3.0 mph W4.8 kmh W 5.0 mph8.0 kmh 30.16 in1021.3 mb 0.00 in0.0 mm 0.00 in/hr0.0 mm/hr 0.00 in0.0 mm
10:15 AM 36.6°F2.6°C 34.2°F1.2°C 91% 4.0 mph W6.4 kmh W 6.0 mph9.7 kmh 30.16 in1021.3 mb 0.00 in0.0 mm 0.00 in/hr0.0 mm/hr 0.00 in0.0 mm
10:30 AM 37.3°F2.9°C 34.9°F1.6°C 91% 2.0 mph WSW3.2 kmh WSW 5.0 mph8.0 kmh 30.16 in1021.3 mb 0.00 in0.0 mm 0.00 in/hr0.0 mm/hr 0.00 in0.0 mm
10:45 AM 39.3°F4.1°C 36.6°F2.6°C 90% 7.0 mph ENE11.3 kmh ENE 8.0 mph12.9 kmh 30.16 in1021.3 mb 0.00 in0.0 mm 0.00 in/hr0.0 mm/hr 0.00 in0.0 mm
11:00 AM 38.8°F3.8°C 35.8°F2.1°C 89% 4.0 mph W6.4 kmh W 4.0 mph6.4 kmh 30.16 in1021.3 mb 0.00 in0.0 mm 0.00 in/hr0.0 mm/hr 0.00 in0.0 mm
11:15 AM 39.6°F4.2°C 36.1°F2.3°C 87% 3.0 mph WSW4.8 kmh WSW 7.0 mph11.3 kmh 30.15 in1021.0 mb 0.00 in0.0 mm 0.00 in/hr0.0 mm/hr 0.00 in0.0 mm
11:30 AM 40.6°F4.8°C 36.8°F2.7°C 86% 2.0 mph WSW3.2 kmh WSW 4.0 mph6.4 kmh 30.15 in1021.0 mb 0.00 in0.0 mm 0.00 in/hr0.0 mm/hr 0.00 in0.0 mm
11:45 AM 41.0°F5.0°C 36.8°F2.7°C 85% 5.0 mph WSW8.0 kmh WSW 5.0 mph8.0 kmh 30.14 in1020.7 mb 0.00 in0.0 mm 0.00 in/hr0.0 mm/hr 0.00 in0.0 mm
12:00 PM 41.4°F5.2°C 37.2°F2.9°C 85% 7.0 mph WSW11.3 kmh WSW 8.0 mph12.9 kmh 30.14 in1020.7 mb 0.00 in0.0 mm 0.00 in/hr0.0 mm/hr 0.00 in0.0 mm
12:15 PM 42.2°F5.7°C 38.3°F3.5°C 86% 4.0 mph SW6.4 kmh SW 7.0 mph11.3 kmh 30.14 in1020.7 mb 0.00 in0.0 mm 0.00 in/hr0.0 mm/hr 0.00 in0.0 mm
12:30 PM 42.5°F5.8°C 38.0°F3.3°C 84% 4.0 mph SW6.4 kmh SW 7.0 mph11.3 kmh 30.14 in1020.7 mb 0.00 in0.0 mm 0.00 in/hr0.0 mm/hr 0.00 in0.0 mm
12:45 PM 42.8°F6.0°C 37.7°F3.2°C 82% 4.0 mph SSW6.4 kmh SSW 7.0 mph11.3 kmh 30.13 in1020.3 mb 0.00 in0.0 mm 0.00 in/hr0.0 mm/hr 0.00 in0.0 mm
01:00 PM 43.1°F6.2°C 38.3°F3.5°C 83% 4.0 mph S6.4 kmh S 6.0 mph9.7 kmh 30.13 in1020.3 mb 0.00 in0.0 mm 0.00 in/hr0.0 mm/hr 0.00 in0.0 mm
01:15 PM 43.3°F6.3°C 37.9°F3.3°C 81% 4.0 mph SW6.4 kmh SW 7.0 mph11.3 kmh 30.12 in1020.0 mb 0.00 in0.0 mm 0.00 in/hr0.0 mm/hr 0.00 in0.0 mm
01:30 PM 43.6°F6.4°C 38.2°F3.4°C 81% 3.0 mph SSW4.8 kmh SSW 5.0 mph8.0 kmh 30.12 in1020.0 mb 0.00 in0.0 mm 0.00 in/hr0.0 mm/hr 0.00 in0.0 mm
01:45 PM 44.1°F6.7°C 39.0°F3.9°C 82% 5.0 mph S8.0 kmh S 7.0 mph11.3 kmh 30.11 in1019.6 mb 0.00 in0.0 mm 0.00 in/hr0.0 mm/hr 0.00 in0.0 mm
02:00 PM 44.3°F6.8°C 39.2°F4.0°C 82% 4.0 mph SSW6.4 kmh SSW 7.0 mph11.3 kmh 30.11 in1019.6 mb 0.00 in0.0 mm 0.00 in/hr0.0 mm/hr 0.00 in0.0 mm
02:15 PM 44.6°F7.0°C 39.8°F4.3°C 83% 6.0 mph S9.7 kmh S 7.0 mph11.3 kmh 30.10 in1019.3 mb 0.00 in0.0 mm 0.00 in/hr0.0 mm/hr 0.00 in0.0 mm
02:30 PM 45.1°F7.3°C 40.3°F4.6°C 83% 7.0 mph S11.3 kmh S 10.0 mph16.1 kmh 30.10 in1019.3 mb 0.00 in0.0 mm 0.00 in/hr0.0 mm/hr 0.00 in0.0 mm
02:45 PM 45.4°F7.4°C 40.2°F4.6°C 82% 9.0 mph SSW14.5 kmh SSW 9.0 mph14.5 kmh 30.09 in1019.0 mb 0.00 in0.0 mm 0.00 in/hr0.0 mm/hr 0.00 in0.0 mm
03:00 PM 45.6°F7.6°C 40.7°F4.8°C 83% 7.0 mph SSW11.3 kmh SSW 9.0 mph14.5 kmh 30.08 in1018.6 mb 0.00 in0.0 mm 0.00 in/hr0.0 mm/hr 0.00 in0.0 mm
03:15 PM 45.9°F7.7°C 41.0°F5.0°C 83% 7.0 mph S11.3 kmh S 9.0 mph14.5 kmh 30.08 in1018.6 mb 0.00 in0.0 mm 0.00 in/hr0.0 mm/hr 0.00 in0.0 mm
03:30 PM 45.9°F7.7°C 40.7°F4.8°C 82% 9.0 mph S14.5 kmh S 9.0 mph14.5 kmh 30.07 in1018.3 mb 0.00 in0.0 mm 0.00 in/hr0.0 mm/hr 0.00 in0.0 mm
03:45 PM 45.9°F7.7°C 41.0°F5.0°C 83% 6.0 mph S9.7 kmh S 9.0 mph14.5 kmh 30.07 in1018.3 mb 0.00 in0.0 mm 0.00 in/hr0.0 mm/hr 0.00 in0.0 mm
04:00 PM 46.0°F7.8°C 41.1°F5.1°C 83% 6.0 mph S9.7 kmh S 9.0 mph14.5 kmh 30.07 in1018.3 mb 0.00 in0.0 mm 0.00 in/hr0.0 mm/hr 0.00 in0.0 mm
04:15 PM 46.4°F8.0°C 41.8°F5.4°C 84% 8.0 mph S12.9 kmh S 9.0 mph14.5 kmh 30.06 in1017.9 mb 0.00 in0.0 mm 0.00 in/hr0.0 mm/hr 0.00 in0.0 mm
04:30 PM 46.4°F8.0°C 41.5°F5.3°C 83% 6.0 mph S9.7 kmh S 9.0 mph14.5 kmh 30.06 in1017.9 mb 0.00 in0.0 mm 0.00 in/hr0.0 mm/hr 0.00 in0.0 mm
04:45 PM 46.5°F8.1°C 41.9°F5.5°C 84% 9.0 mph SW14.5 kmh SW 9.0 mph14.5 kmh 30.06 in1017.9 mb 0.00 in0.0 mm 0.00 in/hr0.0 mm/hr 0.00 in0.0 mm
05:00 PM 46.2°F7.9°C 42.0°F5.6°C 85% 7.0 mph SSW11.3 kmh SSW 10.0 mph16.1 kmh 30.06 in1017.9 mb 0.00 in0.0 mm 0.00 in/hr0.0 mm/hr 0.00 in0.0 mm
05:15 PM 46.1°F7.8°C 41.9°F5.5°C 85% 8.0 mph SW12.9 kmh SW 10.0 mph16.1 kmh 30.06 in1017.9 mb 0.00 in0.0 mm 0.00 in/hr0.0 mm/hr 0.00 in0.0 mm
05:30 PM 46.3°F7.9°C 42.4°F5.8°C 86% 7.0 mph SW11.3 kmh SW 7.0 mph11.3 kmh 30.06 in1017.9 mb 0.00 in0.0 mm 0.00 in/hr0.0 mm/hr 0.00 in0.0 mm
05:45 PM 46.4°F8.0°C 42.5°F5.8°C 86% 6.0 mph SSW9.7 kmh SSW 8.0 mph12.9 kmh 30.06 in1017.9 mb 0.00 in0.0 mm 0.00 in/hr0.0 mm/hr 0.00 in0.0 mm
06:00 PM 46.4°F8.0°C 42.1°F5.6°C 85% 6.0 mph SW9.7 kmh SW 7.0 mph11.3 kmh 30.06 in1017.9 mb 0.00 in0.0 mm 0.00 in/hr0.0 mm/hr 0.00 in0.0 mm
06:15 PM 46.5°F8.1°C 42.2°F5.7°C 85% 6.0 mph SW9.7 kmh SW 7.0 mph11.3 kmh 30.06 in1017.9 mb 0.00 in0.0 mm 0.00 in/hr0.0 mm/hr 0.00 in0.0 mm
06:30 PM 46.5°F8.1°C 42.2°F5.7°C 85% 7.0 mph SW11.3 kmh SW 8.0 mph12.9 kmh 30.05 in1017.6 mb 0.00 in0.0 mm 0.00 in/hr0.0 mm/hr 0.00 in0.0 mm
06:45 PM 46.2°F7.9°C 42.3°F5.7°C 86% 8.0 mph SW12.9 kmh SW 11.0 mph17.7 kmh 30.05 in1017.6 mb 0.00 in0.0 mm 0.00 in/hr0.0 mm/hr 0.00 in0.0 mm
07:00 PM 46.0°F7.8°C 42.4°F5.8°C 87% 8.0 mph SW12.9 kmh SW 10.0 mph16.1 kmh 30.05 in1017.6 mb 0.00 in0.0 mm 0.00 in/hr0.0 mm/hr 0.00 in0.0 mm
07:15 PM 45.8°F7.7°C 42.5°F5.8°C 88% 8.0 mph SW12.9 kmh SW 11.0 mph17.7 kmh 30.05 in1017.6 mb 0.00 in0.0 mm 0.00 in/hr0.0 mm/hr 0.00 in0.0 mm
07:30 PM 45.6°F7.6°C 42.6°F5.9°C 89% 8.0 mph SW12.9 kmh SW 9.0 mph14.5 kmh 30.06 in1017.9 mb 0.01 in0.3 mm 0.04 in/hr1.0 mm/hr 0.01 in0.3 mm
07:45 PM 45.1°F7.3°C 42.6°F5.9°C 91% 6.0 mph WSW9.7 kmh WSW 7.0 mph11.3 kmh 30.05 in1017.6 mb 0.01 in0.3 mm 0.00 in/hr0.0 mm/hr 0.01 in0.3 mm
08:00 PM 44.5°F6.9°C 42.3°F5.7°C 92% 3.0 mph WSW4.8 kmh WSW 7.0 mph11.3 kmh 30.05 in1017.6 mb 0.01 in0.3 mm 0.00 in/hr0.0 mm/hr 0.01 in0.3 mm
08:15 PM 44.0°F6.7°C 41.8°F5.4°C 92% 3.0 mph WSW4.8 kmh WSW 5.0 mph8.0 kmh 30.05 in1017.6 mb 0.01 in0.3 mm 0.00 in/hr0.0 mm/hr 0.01 in0.3 mm
08:30 PM 44.1°F6.7°C 42.2°F5.7°C 93% 4.0 mph WSW6.4 kmh WSW 5.0 mph8.0 kmh 30.05 in1017.6 mb 0.01 in0.3 mm 0.00 in/hr0.0 mm/hr 0.01 in0.3 mm
08:45 PM 43.8°F6.6°C 41.9°F5.5°C 93% 2.0 mph WSW3.2 kmh WSW 4.0 mph6.4 kmh 30.04 in1017.3 mb 0.00 in0.0 mm 0.00 in/hr0.0 mm/hr 0.01 in0.3 mm
09:00 PM 43.8°F6.6°C 41.9°F5.5°C 93% 1.0 mph WSW1.6 kmh WSW 4.0 mph6.4 kmh 30.04 in1017.3 mb 0.00 in0.0 mm 0.00 in/hr0.0 mm/hr 0.01 in0.3 mm
09:15 PM 44.3°F6.8°C 42.4°F5.8°C 93% 4.0 mph SW6.4 kmh SW 5.0 mph8.0 kmh 30.03 in1016.9 mb 0.00 in0.0 mm 0.00 in/hr0.0 mm/hr 0.01 in0.3 mm
09:30 PM 44.9°F7.2°C 42.7°F5.9°C 92% 4.0 mph SW6.4 kmh SW 6.0 mph9.7 kmh 30.03 in1016.9 mb 0.00 in0.0 mm 0.00 in/hr0.0 mm/hr 0.01 in0.3 mm
09:45 PM 45.0°F7.2°C 42.5°F5.8°C 91% 4.0 mph SW6.4 kmh SW 6.0 mph9.7 kmh 30.02 in1016.6 mb 0.00 in0.0 mm 0.00 in/hr0.0 mm/hr 0.01 in0.3 mm
10:00 PM 45.0°F7.2°C 42.5°F5.8°C 91% 4.0 mph SW6.4 kmh SW 6.0 mph9.7 kmh 30.02 in1016.6 mb 0.00 in0.0 mm 0.00 in/hr0.0 mm/hr 0.01 in0.3 mm
10:15 PM 44.9°F7.2°C 42.7°F5.9°C 92% 3.0 mph SW4.8 kmh SW 5.0 mph8.0 kmh 30.01 in1016.3 mb 0.01 in0.3 mm 0.04 in/hr1.0 mm/hr 0.02 in0.5 mm
10:30 PM 44.9°F7.2°C 42.7°F5.9°C 92% 4.0 mph SW6.4 kmh SW 4.0 mph6.4 kmh 30.01 in1016.3 mb 0.01 in0.3 mm 0.00 in/hr0.0 mm/hr 0.02 in0.5 mm
10:45 PM 45.1°F7.3°C 42.9°F6.1°C 92% 5.0 mph SW8.0 kmh SW 7.0 mph11.3 kmh 30.01 in1016.3 mb 0.01 in0.3 mm 0.00 in/hr0.0 mm/hr 0.02 in0.5 mm
11:00 PM 45.3°F7.4°C 42.8°F6.0°C 91% 7.0 mph SW11.3 kmh SW 8.0 mph12.9 kmh 30.00 in1015.9 mb 0.01 in0.3 mm 0.00 in/hr0.0 mm/hr 0.02 in0.5 mm
11:15 PM 45.3°F7.4°C 43.1°F6.2°C 92% 6.0 mph SW9.7 kmh SW 8.0 mph12.9 kmh 30.00 in1015.9 mb 0.01 in0.3 mm 0.00 in/hr0.0 mm/hr 0.02 in0.5 mm
11:30 PM 45.0°F7.2°C 42.5°F5.8°C 91% 4.0 mph WSW6.4 kmh WSW 6.0 mph9.7 kmh 29.99 in1015.6 mb 0.01 in0.3 mm 0.00 in/hr0.0 mm/hr 0.02 in0.5 mm
11:45 PM 44.4°F6.9°C 42.2°F5.7°C 92% 2.0 mph WSW3.2 kmh WSW 4.0 mph6.4 kmh 29.99 in1015.6 mb 0.00 in0.0 mm 0.00 in/hr0.0 mm/hr 0.02 in0.5 mm